createdAt,value
2023-04-21T00:02:22.078Z,101833.81
2023-04-21T00:05:12.710Z,101833.81
2023-04-21T00:07:58.333Z,101827.72
2023-04-21T00:10:44.265Z,101826.81
2023-04-21T00:13:29.379Z,101841.53
2023-04-21T00:16:14.793Z,101842.41
2023-04-21T00:19:00.761Z,101849.28
2023-04-21T00:21:46.456Z,101846.59
2023-04-21T00:24:31.899Z,101848.22
2023-04-21T00:27:17.021Z,101847.28
2023-04-21T00:30:03.094Z,101841.13
2023-04-21T00:32:48.398Z,101833.22
2023-04-21T00:35:33.569Z,101839.91
2023-04-21T00:38:19.397Z,101843.16
2023-04-21T00:41:05.134Z,101843.00
2023-04-21T00:44:06.630Z,101817.03
2023-04-21T00:46:52.159Z,101828.31
2023-04-21T00:49:37.506Z,101831.00
2023-04-21T00:52:22.884Z,101831.13
2023-04-21T00:55:08.482Z,101838.22
2023-04-21T00:57:55.575Z,101828.09
2023-04-21T01:00:45.629Z,101826.38
2023-04-21T01:03:31.267Z,101827.19
2023-04-21T01:06:17.418Z,101823.72
2023-04-21T01:09:04.843Z,101829.09
2023-04-21T01:12:03.604Z,101826.53
2023-04-21T01:14:49.253Z,101817.00
2023-04-21T01:17:38.597Z,101809.16
2023-04-21T01:20:24.836Z,101797.84
2023-04-21T01:23:10.310Z,101794.28
2023-04-21T01:25:55.726Z,101802.06
2023-04-21T01:28:41.278Z,101798.47
2023-04-21T01:31:27.471Z,101791.47
2023-04-21T01:34:13.094Z,101775.72
2023-04-21T01:36:58.319Z,101760.97
2023-04-21T01:39:45.083Z,101762.66
2023-04-21T01:42:31.221Z,101754.78
2023-04-21T01:45:17.031Z,101736.63
2023-04-21T01:48:02.427Z,101738.97
2023-04-21T01:50:47.608Z,101743.22
2023-04-21T01:53:33.139Z,101757.75
2023-04-21T01:56:20.595Z,101741.34
2023-04-21T01:59:06.057Z,101761.25
2023-04-21T02:01:51.316Z,101751.69
2023-04-21T02:04:37.137Z,101750.16
2023-04-21T02:07:22.579Z,101757.94
2023-04-21T02:10:08.031Z,101758.66
2023-04-21T02:12:53.644Z,101759.47
2023-04-21T02:15:38.989Z,101756.88
2023-04-21T02:18:26.055Z,101738.59
2023-04-21T02:21:11.837Z,101746.38
2023-04-21T02:23:57.145Z,101744.69
2023-04-21T02:26:44.820Z,101741.13
2023-04-21T02:29:30.090Z,101734.00
2023-04-21T02:32:25.109Z,101728.03
2023-04-21T02:35:11.609Z,101739.38
2023-04-21T02:37:56.805Z,101733.16
2023-04-21T02:40:42.777Z,101752.06
2023-04-21T02:43:28.316Z,101756.22
2023-04-21T02:46:14.600Z,101760.34
2023-04-21T02:48:59.977Z,101756.09
2023-04-21T02:51:45.129Z,101753.41
2023-04-21T02:54:30.472Z,101764.81
2023-04-21T02:57:15.465Z,101764.78
2023-04-21T03:00:01.184Z,101755.19
2023-04-21T03:02:46.785Z,101743.94
2023-04-21T03:05:34.475Z,101747.44
2023-04-21T03:08:19.680Z,101746.88
2023-04-21T03:11:04.894Z,101735.81
2023-04-21T03:13:50.612Z,101734.25
2023-04-21T03:16:37.095Z,101731.69
2023-04-21T03:19:24.186Z,101725.72
2023-04-21T03:22:09.519Z,101717.94
2023-04-21T03:24:54.875Z,101724.00
2023-04-21T03:27:40.201Z,101743.03
2023-04-21T03:30:28.348Z,101737.84
2023-04-21T03:33:13.890Z,101725.81
2023-04-21T03:35:58.909Z,101724.06
2023-04-21T03:38:48.693Z,101715.41
2023-04-21T03:41:35.035Z,101719.00
2023-04-21T03:44:22.156Z,101710.31
2023-04-21T03:47:07.385Z,101704.44
2023-04-21T03:49:52.457Z,101701.13
2023-04-21T03:52:37.735Z,101704.00
2023-04-21T03:55:22.940Z,101702.38
2023-04-21T03:58:08.193Z,101692.09
2023-04-21T04:00:53.398Z,101694.81
2023-04-21T04:03:38.803Z,101689.69
2023-04-21T04:06:24.444Z,101688.81
2023-04-21T04:09:09.797Z,101686.25
2023-04-21T04:11:55.129Z,101678.47
2023-04-21T04:14:40.466Z,101675.84
2023-04-21T04:17:25.815Z,101675.78
2023-04-21T04:20:11.342Z,101674.94
2023-04-21T04:22:56.656Z,101674.97
2023-04-21T04:25:42.829Z,101668.03
2023-04-21T04:28:28.980Z,101673.31
2023-04-21T04:31:15.183Z,101680.28
2023-04-21T04:34:00.471Z,101677.66
2023-04-21T04:36:46.161Z,101659.56
2023-04-21T04:39:32.304Z,101663.91
2023-04-21T04:42:17.662Z,101666.56
2023-04-21T04:45:03.346Z,101670.06
2023-04-21T04:47:49.946Z,101661.44
2023-04-21T04:50:35.572Z,101664.06
2023-04-21T04:53:20.893Z,101647.59
2023-04-21T04:56:06.247Z,101650.16
2023-04-21T04:58:51.340Z,101639.78
2023-04-21T05:01:38.261Z,101640.56
2023-04-21T05:04:24.260Z,101643.00
2023-04-21T05:07:09.852Z,101640.25
2023-04-21T05:09:55.238Z,101648.75
2023-04-21T05:12:40.394Z,101651.22
2023-04-21T05:15:25.697Z,101645.06
2023-04-21T05:18:11.167Z,101652.09
2023-04-21T05:20:56.571Z,101639.00
2023-04-21T05:23:42.183Z,101636.22
2023-04-21T05:26:28.007Z,101645.66
2023-04-21T05:29:13.308Z,101642.06
2023-04-21T05:31:58.554Z,101637.56
2023-04-21T05:34:44.331Z,101646.91
2023-04-21T05:37:29.645Z,101652.09
2023-04-21T05:40:14.832Z,101660.75
2023-04-21T05:43:00.066Z,101654.66
2023-04-21T05:45:45.404Z,101639.09
2023-04-21T05:48:30.724Z,101640.06
2023-04-21T05:51:15.889Z,101635.00
2023-04-21T05:54:01.109Z,101634.19
2023-04-21T05:56:47.497Z,101627.25
2023-04-21T05:59:32.635Z,101630.66
2023-04-21T06:02:17.994Z,101627.25
2023-04-21T06:05:03.883Z,101627.25
2023-04-21T06:07:49.414Z,101632.53
2023-04-21T06:10:34.786Z,101636.94
2023-04-21T06:13:19.965Z,101644.94
2023-04-21T06:16:05.382Z,101649.50
2023-04-21T06:18:51.136Z,101644.53
2023-04-21T06:21:36.266Z,101631.72
2023-04-21T06:24:25.676Z,101630.19
2023-04-21T06:27:12.268Z,101623.41
2023-04-21T06:29:57.689Z,101617.41
2023-04-21T06:32:43.310Z,101615.75
2023-04-21T06:35:28.522Z,101598.56
2023-04-21T06:38:13.694Z,101577.91
2023-04-21T06:40:59.089Z,101572.00
2023-04-21T06:43:44.340Z,101557.41
2023-04-21T06:46:29.733Z,101554.06
2023-04-21T06:49:14.817Z,101554.00
2023-04-21T06:52:00.421Z,101547.84
2023-04-21T06:54:46.142Z,101550.25
2023-04-21T06:57:31.552Z,101551.16
2023-04-21T07:00:16.951Z,101546.03
2023-04-21T07:03:02.087Z,101542.03
2023-04-21T07:05:47.873Z,101545.59
2023-04-21T07:08:33.250Z,101549.88
2023-04-21T07:11:18.480Z,101558.53
2023-04-21T07:14:04.117Z,101560.38
2023-04-21T07:16:49.230Z,101550.91
2023-04-21T07:19:34.506Z,101552.81
2023-04-21T07:22:19.659Z,101550.34
2023-04-21T07:25:06.584Z,101544.41
2023-04-21T07:27:52.054Z,101545.47
2023-04-21T07:30:37.787Z,101542.97
2023-04-21T07:33:22.928Z,101545.56
2023-04-21T07:36:08.328Z,101535.06
2023-04-21T07:38:53.445Z,101532.50
2023-04-21T07:41:38.653Z,101530.94
2023-04-21T07:44:23.846Z,101522.31
2023-04-21T07:47:09.270Z,101522.47
2023-04-21T07:49:54.576Z,101519.13
2023-04-21T07:52:39.946Z,101509.69
2023-04-21T07:55:25.319Z,101495.00
2023-04-21T07:58:11.141Z,101485.72
2023-04-21T08:00:56.345Z,101462.50
2023-04-21T08:03:42.130Z,101468.63
2023-04-21T08:06:28.173Z,101490.31
2023-04-21T08:09:14.022Z,101527.50
2023-04-21T08:11:59.190Z,101536.06
2023-04-21T08:14:44.486Z,101537.88
2023-04-21T08:17:31.890Z,101531.06
2023-04-21T08:20:17.219Z,101509.50
2023-04-21T08:23:02.503Z,101513.97
2023-04-21T08:25:47.697Z,101509.59
2023-04-21T08:28:33.048Z,101500.84
2023-04-21T08:31:19.282Z,101491.34
2023-04-21T08:34:04.813Z,101486.34
2023-04-21T08:36:50.201Z,101479.56
2023-04-21T08:39:35.738Z,101479.69
2023-04-21T08:42:21.311Z,101462.31
2023-04-21T08:45:06.876Z,101464.16
2023-04-21T08:47:52.814Z,101452.81
2023-04-21T08:50:38.665Z,101447.63
2023-04-21T08:53:23.981Z,101447.59
2023-04-21T08:56:11.886Z,101436.25
2023-04-21T08:58:57.092Z,101426.78
2023-04-21T09:02:01.517Z,101424.25
2023-04-21T09:04:48.247Z,101435.56
2023-04-21T09:07:34.919Z,101431.16
2023-04-21T09:10:24.640Z,101426.91
2023-04-21T09:13:10.653Z,101429.50
2023-04-21T09:15:56.180Z,101428.75
2023-04-21T09:18:44.375Z,101420.94
2023-04-21T09:21:32.137Z,101418.16
2023-04-21T09:24:17.474Z,101419.19
2023-04-21T09:27:03.944Z,101413.09
2023-04-21T09:29:49.712Z,101398.34
2023-04-21T09:32:39.240Z,101394.13
2023-04-21T09:35:28.099Z,101396.91
2023-04-21T09:38:13.521Z,101386.53
2023-04-21T09:40:59.158Z,101373.47
2023-04-21T09:43:44.623Z,101373.50
2023-04-21T09:46:34.436Z,101371.84
2023-04-21T09:49:22.766Z,101372.81
2023-04-21T09:52:18.781Z,101371.16
2023-04-21T09:55:07.176Z,101365.91
2023-04-21T09:57:55.054Z,101366.81
2023-04-21T10:00:41.214Z,101366.91
2023-04-21T10:03:27.945Z,101362.53
2023-04-21T10:06:13.936Z,101365.91
2023-04-21T10:08:59.321Z,101342.34
2023-04-21T10:11:44.955Z,101338.00
2023-04-21T10:14:30.310Z,101351.09
2023-04-21T10:17:17.832Z,101347.63
2023-04-21T10:20:06.782Z,101334.59
2023-04-21T10:22:57.138Z,101348.56
2023-04-21T10:25:42.797Z,101339.78
2023-04-21T10:28:41.600Z,101331.81
2023-04-21T10:31:30.179Z,101336.97
2023-04-21T10:34:16.241Z,101332.66
2023-04-21T10:37:04.957Z,101338.88
2023-04-21T10:39:54.811Z,101334.63
2023-04-21T10:42:39.957Z,101331.19
2023-04-21T10:45:25.973Z,101327.81
2023-04-21T10:48:13.787Z,101308.63
2023-04-21T10:50:59.187Z,101313.06
2023-04-21T10:53:44.371Z,101307.78
2023-04-21T10:56:29.771Z,101299.09
2023-04-21T10:59:16.070Z,101305.13
2023-04-21T11:02:02.211Z,101303.38
2023-04-21T11:04:51.281Z,101291.25
2023-04-21T11:07:37.209Z,101279.91
2023-04-21T11:10:22.471Z,101279.09
2023-04-21T11:13:07.998Z,101267.81
2023-04-21T11:15:57.694Z,101269.56
2023-04-21T11:18:44.209Z,101270.47
2023-04-21T11:21:30.031Z,101284.34
2023-04-21T11:24:15.482Z,101258.19
2023-04-21T11:27:04.027Z,101250.38
2023-04-21T11:29:50.569Z,101258.22
2023-04-21T11:32:38.027Z,101256.50
2023-04-21T11:35:23.718Z,101243.47
2023-04-21T11:38:08.910Z,101237.34
2023-04-21T11:40:55.115Z,101224.31
2023-04-21T11:43:40.384Z,101216.47
2023-04-21T11:46:26.608Z,101226.03
2023-04-21T11:49:12.577Z,101213.00
2023-04-21T11:51:57.875Z,101217.31
2023-04-21T11:54:42.954Z,101206.81
2023-04-21T11:57:29.194Z,101197.25
2023-04-21T12:00:15.430Z,101180.69
2023-04-21T12:03:01.103Z,101192.88
2023-04-21T12:05:46.723Z,101186.75
2023-04-21T12:08:32.575Z,101184.97
2023-04-21T12:11:17.902Z,101186.56
2023-04-21T12:14:03.201Z,101184.75
2023-04-21T12:16:49.270Z,101171.69
2023-04-21T12:19:35.962Z,101167.19
2023-04-21T12:22:23.654Z,101158.38
2023-04-21T12:25:11.895Z,101148.66
2023-04-21T12:27:58.465Z,101156.19
2023-04-21T12:30:44.237Z,101143.25
2023-04-21T12:33:29.741Z,101147.78
2023-04-21T12:36:16.354Z,101146.09
2023-04-21T12:39:02.121Z,101146.97
2023-04-21T12:41:47.745Z,101127.81
2023-04-21T12:44:32.894Z,101134.00
2023-04-21T12:47:18.048Z,101132.97
2023-04-21T12:50:03.732Z,101124.31
2023-04-21T12:52:51.550Z,101111.16
2023-04-21T12:55:37.333Z,101111.91
2023-04-21T12:58:22.917Z,101114.72
2023-04-21T13:01:08.540Z,101106.84
2023-04-21T13:03:54.045Z,101101.59
2023-04-21T13:06:40.048Z,101089.22
2023-04-21T13:09:25.634Z,101085.66
2023-04-21T13:12:10.972Z,101083.91
2023-04-21T13:14:56.640Z,101076.25
2023-04-21T13:17:41.875Z,101077.13
2023-04-21T13:20:27.333Z,101077.06
2023-04-21T13:23:14.447Z,101073.50
2023-04-21T13:26:00.042Z,101092.88
2023-04-21T13:28:45.352Z,101069.13
2023-04-21T13:31:30.785Z,101065.34
2023-04-21T13:34:16.150Z,101072.31
2023-04-21T13:37:01.649Z,101065.94
2023-04-21T13:39:47.132Z,101050.81
2023-04-21T13:42:33.807Z,101055.75
2023-04-21T13:45:18.976Z,101029.25
2023-04-21T13:48:04.450Z,101034.31
2023-04-21T13:50:52.203Z,101030.53
2023-04-21T13:53:37.387Z,101023.91
2023-04-21T13:56:22.692Z,101022.00
2023-04-21T13:59:07.928Z,101015.03
2023-04-21T14:01:53.334Z,101016.59
2023-04-21T14:04:39.099Z,101001.75
2023-04-21T14:07:26.491Z,101008.91
2023-04-21T14:10:14.900Z,101003.03
2023-04-21T14:13:00.388Z,100996.88
2023-04-21T14:15:45.584Z,100985.22
2023-04-21T14:18:30.900Z,100988.53
2023-04-21T14:21:16.253Z,100990.31
2023-04-21T14:24:01.572Z,100979.69
2023-04-21T14:26:46.801Z,100979.31
2023-04-21T14:29:32.453Z,100975.88
2023-04-21T14:32:20.708Z,100970.09
2023-04-21T14:35:06.790Z,100962.97
2023-04-21T14:37:54.726Z,100964.38
2023-04-21T14:40:40.926Z,100959.22
2023-04-21T14:43:26.203Z,100962.97
2023-04-21T14:46:11.407Z,100961.22
2023-04-21T14:48:57.650Z,100952.56
2023-04-21T14:51:42.646Z,100961.38
2023-04-21T14:54:27.998Z,100944.94
2023-04-21T15:00:02.527Z,100950.34
2023-04-21T15:02:48.127Z,100946.94
2023-04-21T15:05:35.018Z,100938.38
2023-04-21T15:08:20.495Z,100935.00
2023-04-21T15:11:06.003Z,100932.47
2023-04-21T15:13:51.192Z,100935.09
2023-04-21T15:16:37.034Z,100932.44
2023-04-21T15:19:25.261Z,100935.03
2023-04-21T15:22:12.260Z,100934.34
2023-04-21T15:24:57.780Z,100945.91
2023-04-21T15:27:43.260Z,100937.28
2023-04-21T15:30:28.769Z,100939.06
2023-04-21T15:33:14.060Z,100939.91
2023-04-21T15:35:59.207Z,100928.53
2023-04-21T15:38:45.159Z,100930.28
2023-04-21T15:41:31.706Z,100927.66
2023-04-21T15:44:17.370Z,100922.44
2023-04-21T15:47:03.053Z,100919.88
2023-04-21T15:49:48.459Z,100914.53
2023-04-21T15:52:35.882Z,100914.41
2023-04-21T15:55:21.467Z,100906.44
2023-04-21T15:58:06.932Z,100904.56
2023-04-21T16:00:52.493Z,100906.16
2023-04-21T16:03:38.104Z,100907.88
2023-04-21T16:06:25.264Z,100904.41
2023-04-21T16:09:11.053Z,100893.00
2023-04-21T16:11:56.855Z,100876.31
2023-04-21T16:14:54.553Z,100877.22
2023-04-21T16:17:44.548Z,100866.72
2023-04-21T16:20:31.183Z,100894.88
2023-04-21T16:23:16.649Z,100878.41
2023-04-21T16:26:02.392Z,100879.25
2023-04-21T16:28:47.697Z,100866.25
2023-04-21T16:31:33.025Z,100856.50
2023-04-21T16:34:18.613Z,100858.00
2023-04-21T16:37:03.791Z,100850.78
2023-04-21T16:39:49.411Z,100855.22
2023-04-21T16:42:34.868Z,100850.09
2023-04-21T16:45:20.089Z,100844.25
2023-04-21T16:48:05.829Z,100846.06
2023-04-21T16:50:53.889Z,100842.63
2023-04-21T16:53:40.381Z,100843.44
2023-04-21T16:56:26.125Z,100842.66
2023-04-21T16:59:11.351Z,100844.38
2023-04-21T17:01:56.886Z,100832.88
2023-04-21T17:04:42.694Z,100844.44
2023-04-21T17:07:28.194Z,100844.53
2023-04-21T17:10:13.547Z,100842.84
2023-04-21T17:12:58.892Z,100834.28
2023-04-21T17:15:44.121Z,100828.19
2023-04-21T17:18:29.911Z,100822.91
2023-04-21T17:21:15.390Z,100828.78
2023-04-21T17:25:42.906Z,100834.97
2023-04-21T17:28:28.355Z,100833.97
2023-04-21T17:31:16.164Z,100826.69
2023-04-21T17:34:01.887Z,100824.06
2023-04-21T17:36:47.323Z,100821.44
2023-04-21T17:39:32.887Z,100825.94
2023-04-21T17:42:18.549Z,100811.91
2023-04-21T17:45:05.896Z,100809.38
2023-04-21T17:47:51.554Z,100809.75
2023-04-21T17:50:36.944Z,100820.28
2023-04-21T17:53:22.122Z,100811.53
2023-04-21T17:56:08.601Z,100811.63
2023-04-21T17:58:54.527Z,100800.38
2023-04-21T18:01:40.133Z,100807.31
2023-04-21T18:04:27.389Z,100817.84
2023-04-21T18:07:13.472Z,100817.16
2023-04-21T18:09:59.206Z,100821.66
2023-04-21T18:12:44.947Z,100819.94
2023-04-21T18:15:30.596Z,100813.94
2023-04-21T18:18:16.082Z,100810.50
2023-04-21T18:21:01.768Z,100809.69
2023-04-21T18:23:47.545Z,100806.22
2023-04-21T18:26:33.252Z,100817.53
2023-04-21T18:29:19.639Z,100816.66
2023-04-21T18:32:05.517Z,100808.84
2023-04-21T18:34:51.132Z,100810.59
2023-04-21T18:37:36.537Z,100805.41
2023-04-21T18:40:22.126Z,100806.28
2023-04-21T18:43:07.918Z,100804.53
2023-04-21T18:45:53.107Z,100803.69
2023-04-21T18:48:38.652Z,100806.31
2023-04-21T18:51:24.507Z,100808.06
2023-04-21T18:54:09.965Z,100796.75
2023-04-21T18:56:55.720Z,100796.75
2023-04-21T18:59:41.311Z,100797.63
2023-04-21T19:02:27.081Z,100805.47
2023-04-21T19:05:12.975Z,100807.25
2023-04-21T19:07:58.451Z,100803.78
2023-04-21T19:10:44.078Z,100816.81
2023-04-21T19:13:29.580Z,100808.16
2023-04-21T19:16:16.727Z,100813.34
2023-04-21T19:19:02.455Z,100819.41
2023-04-21T19:21:50.327Z,100809.00
2023-04-21T19:24:36.252Z,100814.22
2023-04-21T19:27:22.086Z,100822.00
2023-04-21T19:30:09.397Z,100805.50
2023-04-21T19:32:55.295Z,100811.59
2023-04-21T19:35:41.239Z,100813.34
2023-04-21T19:38:26.844Z,100809.84
2023-04-21T19:41:13.259Z,100806.38
2023-04-21T19:43:58.740Z,100810.72
2023-04-21T19:46:44.356Z,100812.44
2023-04-21T19:49:30.167Z,100818.53
2023-04-21T19:52:15.802Z,100821.97
2023-04-21T19:55:01.648Z,100820.28
2023-04-21T19:57:46.951Z,100812.41
2023-04-21T20:00:32.408Z,100808.94
2023-04-21T20:03:17.798Z,100807.19
2023-04-21T20:06:05.029Z,100809.81
2023-04-21T20:08:50.655Z,100801.97
2023-04-21T20:11:36.598Z,100810.66
2023-04-21T20:14:22.071Z,100814.13
2023-04-21T20:17:07.785Z,100803.69
2023-04-21T20:19:54.313Z,100803.69
2023-04-21T20:22:39.866Z,100801.09
2023-04-21T20:25:25.790Z,100808.03
2023-04-21T20:28:11.270Z,100795.88
2023-04-21T20:30:57.052Z,100808.88
2023-04-21T20:33:42.562Z,100801.94
2023-04-21T20:36:28.803Z,100812.34
2023-04-21T20:39:14.447Z,100804.53
2023-04-21T20:42:12.070Z,100802.78
2023-04-21T20:45:02.465Z,100807.09
2023-04-21T20:47:47.632Z,100804.47
2023-04-21T20:50:33.060Z,100795.78
2023-04-21T20:53:18.876Z,100794.03
2023-04-21T20:56:04.413Z,100793.13
2023-04-21T20:58:49.963Z,100780.13
2023-04-21T21:01:39.904Z,100775.75
2023-04-21T21:04:25.563Z,100775.75
2023-04-21T21:07:11.350Z,100772.25
2023-04-21T21:09:56.824Z,100764.41
2023-04-21T21:12:43.012Z,100770.50
2023-04-21T21:15:30.535Z,100764.41
2023-04-21T21:18:16.107Z,100767.88
2023-04-21T21:21:02.302Z,100766.13
2023-04-21T21:23:47.782Z,100783.44
2023-04-21T21:26:33.272Z,100778.22
2023-04-21T21:29:19.078Z,100772.13
2023-04-21T21:32:04.503Z,100777.31
2023-04-21T21:34:52.265Z,100781.63
2023-04-21T21:37:38.313Z,100769.47
2023-04-21T21:40:23.994Z,100768.53
2023-04-21T21:43:10.981Z,100764.25
2023-04-21T21:45:56.578Z,100769.47
2023-04-21T21:48:42.769Z,100765.13
2023-04-21T21:51:29.065Z,100765.97
2023-04-21T21:54:14.299Z,100775.50
2023-04-21T21:56:59.927Z,100777.25
2023-04-21T21:59:45.684Z,100779.88
2023-04-21T22:02:31.336Z,100779.88
2023-04-21T22:05:17.678Z,100785.94
2023-04-21T22:08:04.238Z,100792.06
2023-04-21T22:10:49.592Z,100789.47
2023-04-21T22:13:35.161Z,100789.47
2023-04-21T22:16:20.563Z,100791.22
2023-04-21T22:19:06.001Z,100780.81
2023-04-21T22:21:52.407Z,100775.63
2023-04-21T22:24:38.321Z,100773.03
2023-04-21T22:27:23.702Z,100766.06
2023-04-21T22:30:09.644Z,100762.59
2023-04-21T22:32:55.074Z,100764.34
2023-04-21T22:35:40.671Z,100763.47
2023-04-21T22:38:26.066Z,100753.97
2023-04-21T22:41:11.726Z,100757.41
2023-04-21T22:43:57.010Z,100747.00
2023-04-21T22:46:42.855Z,100751.34
2023-04-21T22:49:28.642Z,100743.53
2023-04-21T22:52:14.421Z,100742.63
2023-04-21T22:54:59.780Z,100749.56
2023-04-21T22:57:45.377Z,100747.84
2023-04-21T23:00:31.104Z,100756.50
2023-04-21T23:03:16.653Z,100751.28
2023-04-21T23:06:02.224Z,100746.09
2023-04-21T23:08:47.612Z,100755.63
2023-04-21T23:11:32.823Z,100746.97
2023-04-21T23:14:18.272Z,100760.84
2023-04-21T23:17:03.669Z,100750.44
2023-04-21T23:19:49.552Z,100747.00
2023-04-21T23:22:35.367Z,100744.41
2023-04-21T23:25:20.909Z,100741.81
2023-04-21T23:28:06.373Z,100745.25
2023-04-21T23:30:52.112Z,100747.00
2023-04-21T23:33:37.537Z,100738.31
2023-04-21T23:36:22.821Z,100733.97
2023-04-21T23:39:08.262Z,100726.19
2023-04-21T23:41:53.666Z,100726.16
2023-04-21T23:44:40.471Z,100727.94
2023-04-21T23:47:25.979Z,100726.19
2023-04-21T23:50:11.770Z,100722.72
2023-04-21T23:52:57.264Z,100720.97
2023-04-21T23:55:43.245Z,100708.88
2023-04-21T23:58:28.804Z,100713.19
